Time;durP1;ratioP1;P1;durP2;ratioP2;P2;SDS_P1;SDS_P2;PMS_P1;PMS_P2;Temp;Humidity;BMP_temperature;BMP_pressure;BME280_temperature;BME280_humidity;BME280_pressure;Samples;Min_cycle;Max_cycle;Signal;HPM_P1;HPM_P2
2023/10/14 00:01:11;;;;;;;;;;;;;;;13.80;100.00;100056.22;5060751;28;1230;-75
2023/10/14 00:03:37;;;;;;;;;;;;;;;13.80;100.00;100072.66;5047804;28;1473;-75
2023/10/14 00:06:06;;;;;;;;;;;;;;;13.73;100.00;100074.31;5059157;28;1906;-75
2023/10/14 00:08:32;;;;;;;;;;;;;;;13.72;100.00;100080.50;5046299;28;1208;-77
2023/10/14 00:11:06;;;;;;;;;;;;;;;13.73;100.00;100081.31;5064799;28;1305;-77
2023/10/14 00:13:36;;;;;;;;;;;;;;;13.72;100.00;100079.69;5057020;28;1137;-77
2023/10/14 00:16:01;;;;;;;;;;;;;;;13.72;100.00;100090.91;5049469;28;1210;-78
2023/10/14 00:18:27;;;;;;;;;;;;;;;13.69;100.00;100100.84;5047075;28;1082;-78
2023/10/14 00:20:53;;;;;;;;;;;;;;;13.64;100.00;100088.28;5054624;28;1189;-78
2023/10/14 00:23:21;;;;;;;;;;;;;;;13.61;100.00;100091.25;5043018;28;1528;-78
2023/10/14 00:25:48;;;;;;;;;;;;;;;13.60;100.00;100094.84;5052997;28;1961;-78
2023/10/14 00:28:13;;;;;;;;;;;;;;;13.52;100.00;100106.03;5045984;28;1284;-77
2023/10/14 00:30:39;;;;;;;;;;;;;;;13.53;100.00;100112.06;5039049;28;1432;-75
2023/10/14 00:33:04;;;;;;;;;;;;;;;13.53;100.00;100117.28;5046547;28;1271;-75
2023/10/14 00:35:29;;;;;;;;;;;;;;;13.53;100.00;100123.34;5042276;28;1349;-75
2023/10/14 00:37:55;;;;;;;;;;;;;;;13.48;100.00;100119.56;5064317;28;1267;-75
2023/10/14 00:40:23;;;;;;;;;;;;;;;13.47;100.00;100133.56;5033562;28;1249;-76
2023/10/14 00:42:50;;;;;;;;;;;;;;;13.49;100.00;100136.84;5047684;28;1278;-75
2023/10/14 00:45:20;;;;;;;;;;;;;;;13.51;100.00;100140.09;5049547;28;1914;-78
2023/10/14 00:47:45;;;;;;;;;;;;;;;13.53;100.00;100148.53;5045898;28;1305;-78
2023/10/14 00:50:29;;;;;;;;;;;;;;;13.55;100.00;100162.25;5045287;28;1183;-77
2023/10/14 00:52:57;;;;;;;;;;;;;;;13.70;100.00;100160.63;5045358;28;1257;-78
2023/10/14 00:58:06;;;;;;;;;;;;;;;13.45;100.00;100178.00;5052109;28;1325;-78
2023/10/14 01:00:37;;;;;;;;;;;;;;;13.35;100.00;100192.16;5040410;28;1077;-79
2023/10/14 01:03:07;;;;;;;;;;;;;;;13.16;100.00;100208.81;5052826;28;1208;-78
2023/10/14 01:05:35;;;;;;;;;;;;;;;13.00;100.00;100222.56;5047376;28;1917;-78
2023/10/14 01:08:02;;;;;;;;;;;;;;;12.83;100.00;100213.06;5043057;28;1204;-78
2023/10/14 01:10:28;;;;;;;;;;;;;;;12.77;100.00;100220.50;5053307;28;1331;-78
2023/10/14 01:13:06;;;;;;;;;;;;;;;12.73;100.00;100219.19;5069916;28;1285;-78
2023/10/14 01:15:31;;;;;;;;;;;;;;;12.73;100.00;100229.59;5050673;28;1127;-78
2023/10/14 01:17:56;;;;;;;;;;;;;;;12.72;100.00;100233.16;5052398;28;1178;-78
2023/10/14 01:22:51;;;;;;;;;;;;;;;12.87;100.00;100245.63;5053892;28;1180;-78
2023/10/14 01:25:17;;;;;;;;;;;;;;;12.73;100.00;100245.22;5045234;28;1949;-78
2023/10/14 01:27:43;;;;;;;;;;;;;;;12.79;100.00;100253.34;5047899;28;1237;-78
2023/10/14 01:30:11;;;;;;;;;;;;;;;12.72;100.00;100259.19;5051582;28;1260;-78
2023/10/14 01:32:43;;;;;;;;;;;;;;;12.66;100.00;100259.78;5053825;28;1299;-78
2023/10/14 01:37:56;;;;;;;;;;;;;;;12.58;100.00;100277.94;5044145;28;1226;-78
2023/10/14 01:43:06;;;;;;;;;;;;;;;12.60;100.00;100296.81;5045466;28;964;-78
2023/10/14 01:45:39;;;;;;;;;;;;;;;12.52;100.00;100304.56;5034952;28;1890;-77
2023/10/14 01:50:33;;;;;;;;;;;;;;;12.47;100.00;100296.41;5051430;28;1356;-75
2023/10/14 01:53:08;;;;;;;;;;;;;;;12.46;100.00;100305.19;5032674;28;1070;-76
2023/10/14 01:55:35;;;;;;;;;;;;;;;12.47;100.00;100309.41;5058236;28;1191;-76
2023/10/14 01:58:02;;;;;;;;;;;;;;;12.47;100.00;100310.22;5046160;28;1444;-75
2023/10/14 02:00:28;;;;;;;;;;;;;;;12.46;100.00;100311.19;5047556;28;1225;-75
2023/10/14 02:03:00;;;;;;;;;;;;;;;12.47;100.00;100322.41;5066784;28;1236;-76
2023/10/14 02:05:27;;;;;;;;;;;;;;;12.48;100.00;100329.25;5043030;28;1981;-75
2023/10/14 02:07:52;;;;;;;;;;;;;;;12.47;100.00;100335.41;5049443;28;1320;-75
2023/10/14 02:10:18;;;;;;;;;;;;;;;12.48;100.00;100339.66;5045868;28;1099;-76
2023/10/14 02:12:43;;;;;;;;;;;;;;;12.54;100.00;100352.06;5050145;28;1262;-75
2023/10/14 02:15:08;;;;;;;;;;;;;;;12.52;100.00;100358.38;5051965;28;1009;-75
2023/10/14 02:17:33;;;;;;;;;;;;;;;12.51;100.00;100359.34;5067343;28;1373;-75
2023/10/14 02:20:08;;;;;;;;;;;;;;;12.55;100.00;100371.88;5049521;28;1235;-75
2023/10/14 02:22:38;;;;;;;;;;;;;;;12.42;100.00;100382.66;5049207;28;1214;-77
2023/10/14 02:25:04;;;;;;;;;;;;;;;12.42;100.00;100390.47;5055255;28;1901;-75
2023/10/14 02:27:30;;;;;;;;;;;;;;;12.38;100.00;100390.91;5046267;28;1166;-75
2023/10/14 02:29:55;;;;;;;;;;;;;;;12.29;100.00;100394.41;5047554;28;1254;-75
2023/10/14 02:32:20;;;;;;;;;;;;;;;12.29;100.00;100415.22;5051609;28;1158;-76
2023/10/14 02:34:46;;;;;;;;;;;;;;;12.25;100.00;100427.69;5043391;28;1163;-76
2023/10/14 02:37:15;;;;;;;;;;;;;;;12.22;100.00;100434.00;5063555;28;1278;-76
2023/10/14 02:39:43;;;;;;;;;;;;;;;12.17;100.00;100443.19;5039348;28;1249;-75
2023/10/14 02:42:09;;;;;;;;;;;;;;;12.12;100.00;100448.00;5067160;28;1533;-76
2023/10/14 02:44:53;;;;;;;;;;;;;;;12.06;100.00;100457.19;5045042;28;1337;-75
2023/10/14 02:47:26;;;;;;;;;;;;;;;12.03;100.00;100473.06;5042523;28;1043;-76
2023/10/14 02:50:05;;;;;;;;;;;;;;;11.99;100.00;100481.31;5055638;28;1359;-75
2023/10/14 02:52:30;;;;;;;;;;;;;;;11.92;100.00;100483.63;5047233;28;1087;-75
2023/10/14 02:55:18;;;;;;;;;;;;;;;11.84;100.00;100499.13;5049466;28;1325;-76
2023/10/14 02:57:41;;;;;;;;;;;;;;;11.84;100.00;100492.16;5044798;28;1036;-75
2023/10/14 03:00:09;;;;;;;;;;;;;;;11.78;100.00;100491.88;5041362;28;1276;-75
2023/10/14 03:02:48;;;;;;;;;;;;;;;11.74;100.00;100501.72;5057683;28;1207;-77
2023/10/14 03:05:32;;;;;;;;;;;;;;;11.74;100.00;100506.91;5045113;28;1981;-78
2023/10/14 03:08:06;;;;;;;;;;;;;;;11.65;100.00;100508.59;5044658;28;1218;-78
2023/10/14 03:10:35;;;;;;;;;;;;;;;11.62;100.00;100524.44;5046476;28;1024;-78
2023/10/14 03:13:00;;;;;;;;;;;;;;;11.57;100.00;100531.00;5044519;28;1042;-78
2023/10/14 03:15:27;;;;;;;;;;;;;;;11.53;100.00;100533.09;5051731;28;1249;-78
2023/10/14 03:17:58;;;;;;;;;;;;;;;11.53;100.00;100540.88;5054087;28;1478;-78
2023/10/14 03:22:58;;;;;;;;;;;;;;;11.46;100.00;100544.13;5045572;28;1168;-78
2023/10/14 03:25:23;;;;;;;;;;;;;;;11.40;100.00;100555.91;5052154;28;1969;-78
2023/10/14 03:27:59;;;;;;;;;;;;;;;11.37;100.00;100557.00;5054778;28;1032;-78
2023/10/14 03:30:24;;;;;;;;;;;;;;;11.32;100.00;100563.56;5049393;28;1153;-78
2023/10/14 03:32:49;;;;;;;;;;;;;;;11.31;100.00;100573.13;5049664;28;1151;-78
2023/10/14 03:35:20;;;;;;;;;;;;;;;11.28;100.00;100577.75;5061590;28;1194;-79
2023/10/14 03:37:52;;;;;;;;;;;;;;;11.37;100.00;100587.34;5055300;28;1515;-78
2023/10/14 03:43:10;;;;;;;;;;;;;;;11.24;100.00;100604.94;5048272;28;1021;-78
2023/10/14 03:48:21;;;;;;;;;;;;;;;11.03;100.00;100611.06;5051520;28;1004;-79
2023/10/14 03:50:46;;;;;;;;;;;;;;;11.07;100.00;100620.22;5056251;28;1140;-78
2023/10/14 03:53:12;;;;;;;;;;;;;;;10.97;100.00;100619.38;5053868;28;1325;-78
2023/10/14 03:55:38;;;;;;;;;;;;;;;10.98;100.00;100623.63;5057721;28;1203;-78
2023/10/14 03:58:03;;;;;;;;;;;;;;;10.92;100.00;100618.97;5058002;28;1153;-78
2023/10/14 04:00:38;;;;;;;;;;;;;;;10.99;100.00;100630.44;5056155;28;1158;-78
2023/10/14 04:03:06;;;;;;;;;;;;;;;10.85;100.00;100633.41;5059132;28;1018;-78
2023/10/14 04:05:31;;;;;;;;;;;;;;;10.81;100.00;100634.63;5048419;28;1897;-78
2023/10/14 04:07:57;;;;;;;;;;;;;;;10.78;100.00;100632.28;5049938;28;1267;-78
2023/10/14 04:10:23;;;;;;;;;;;;;;;10.79;100.00;100641.72;5047168;28;1140;-75
2023/10/14 04:12:55;;;;;;;;;;;;;;;10.79;100.00;100649.50;5040017;28;1143;-75
2023/10/14 04:15:45;;;;;;;;;;;;;;;10.77;100.00;100652.22;5045461;28;1283;-74
2023/10/14 04:18:12;;;;;;;;;;;;;;;10.75;100.00;100668.88;5034072;28;1008;-75
2023/10/14 04:20:37;;;;;;;;;;;;;;;10.70;100.00;100665.84;5038157;28;1187;-76
2023/10/14 04:23:10;;;;;;;;;;;;;;;10.68;100.00;100672.94;5043628;28;1005;-75
2023/10/14 04:25:42;;;;;;;;;;;;;;;10.63;100.00;100676.75;5053849;28;1954;-75
2023/10/14 04:30:42;;;;;;;;;;;;;;;10.69;99.99;100677.19;5041298;28;1037;-78
2023/10/14 04:33:17;;;;;;;;;;;;;;;10.61;100.00;100691.63;5051479;28;2459;-78
2023/10/14 04:35:57;;;;;;;;;;;;;;;10.60;100.00;100692.53;5060133;28;1069;-78
2023/10/14 04:38:28;;;;;;;;;;;;;;;10.61;100.00;100694.22;5050762;28;1384;-78
2023/10/14 04:40:53;;;;;;;;;;;;;;;10.59;100.00;100701.28;5049301;28;1122;-79
2023/10/14 04:45:55;;;;;;;;;;;;;;;10.58;100.00;100707.41;5055276;28;1965;-78
2023/10/14 04:48:35;;;;;;;;;;;;;;;10.69;98.69;100721.28;5052125;28;1410;-78
2023/10/14 04:51:06;;;;;;;;;;;;;;;10.57;100.00;100736.91;5044131;28;1225;-78
2023/10/14 04:53:31;;;;;;;;;;;;;;;10.53;100.00;100732.91;5046017;28;1119;-78
2023/10/14 04:56:01;;;;;;;;;;;;;;;10.53;100.00;100738.09;5053329;28;1084;-78
2023/10/14 04:58:26;;;;;;;;;;;;;;;10.53;100.00;100738.09;5050376;28;1330;-78
2023/10/14 05:00:52;;;;;;;;;;;;;;;10.49;99.68;100747.06;5050781;28;1097;-78
2023/10/14 05:03:19;;;;;;;;;;;;;;;10.50;99.61;100742.72;5048080;28;1198;-78
2023/10/14 05:06:03;;;;;;;;;;;;;;;10.49;100.00;100751.44;5052455;28;1947;-78
2023/10/14 05:08:44;;;;;;;;;;;;;;;10.51;99.45;100758.16;5043084;28;1200;-78
2023/10/14 05:11:12;;;;;;;;;;;;;;;10.47;100.00;100766.31;5047075;28;1021;-78
2023/10/14 05:13:38;;;;;;;;;;;;;;;10.46;99.64;100773.28;5040807;28;967;-78
2023/10/14 05:16:15;;;;;;;;;;;;;;;10.44;99.82;100774.34;5046800;28;1317;-75
2023/10/14 05:18:57;;;;;;;;;;;;;;;10.43;100.00;100777.88;5036156;28;1449;-76
2023/10/14 05:21:35;;;;;;;;;;;;;;;10.39;100.00;100790.28;5047294;28;957;-75
2023/10/14 05:24:02;;;;;;;;;;;;;;;10.33;100.00;100785.59;5046705;28;1100;-74
2023/10/14 05:26:27;;;;;;;;;;;;;;;10.37;100.00;100800.75;5044496;28;1902;-75
2023/10/14 05:28:53;;;;;;;;;;;;;;;10.33;100.00;100798.56;5042210;28;1079;-75
2023/10/14 05:31:18;;;;;;;;;;;;;;;10.32;100.00;100813.28;5052146;28;1278;-74
2023/10/14 05:33:43;;;;;;;;;;;;;;;10.29;100.00;100804.94;5043939;28;1144;-76
2023/10/14 05:36:09;;;;;;;;;;;;;;;10.25;100.00;100816.47;5036413;28;1375;-76
2023/10/14 05:38:34;;;;;;;;;;;;;;;10.22;100.00;100827.09;5046366;28;1235;-77
2023/10/14 05:41:00;;;;;;;;;;;;;;;10.21;100.00;100826.25;5050350;28;1249;-75
2023/10/14 05:43:25;;;;;;;;;;;;;;;10.21;100.00;100834.03;5042472;28;1323;-75
2023/10/14 05:45:54;;;;;;;;;;;;;;;10.20;100.00;100828.94;5048739;28;1897;-76
2023/10/14 05:48:26;;;;;;;;;;;;;;;10.18;100.00;100842.03;5050620;28;1075;-76
2023/10/14 05:50:52;;;;;;;;;;;;;;;10.17;100.00;100844.75;5044179;28;1206;-75
2023/10/14 05:53:19;;;;;;;;;;;;;;;10.17;100.00;100850.75;5046475;28;1224;-74
2023/10/14 05:55:47;;;;;;;;;;;;;;;10.18;100.00;100856.78;5045767;28;1166;-75
2023/10/14 05:58:13;;;;;;;;;;;;;;;10.19;100.00;100858.41;5038737;28;1066;-75
2023/10/14 06:00:38;;;;;;;;;;;;;;;10.17;100.00;100861.13;5050799;28;1143;-75
2023/10/14 06:03:06;;;;;;;;;;;;;;;10.18;100.00;100867.13;5044513;28;1344;-76
2023/10/14 06:05:32;;;;;;;;;;;;;;;10.18;100.00;100872.31;5048895;28;1914;-75
2023/10/14 06:08:05;;;;;;;;;;;;;;;10.18;100.00;100880.09;5049798;28;1294;-73
2023/10/14 06:10:31;;;;;;;;;;;;;;;10.18;100.00;100882.69;5070074;28;1506;-75
2023/10/14 06:12:56;;;;;;;;;;;;;;;10.16;100.00;100879.41;5050527;28;2380;-75
2023/10/14 06:15:22;;;;;;;;;;;;;;;10.16;100.00;100894.97;5051105;28;1278;-78
2023/10/14 06:17:48;;;;;;;;;;;;;;;10.12;100.00;100899.53;5049041;28;1352;-77
2023/10/14 06:20:14;;;;;;;;;;;;;;;10.11;100.00;100903.09;5051685;28;1331;-75
2023/10/14 06:22:43;;;;;;;;;;;;;;;10.09;100.00;100908.41;5049249;28;1370;-77
2023/10/14 06:25:14;;;;;;;;;;;;;;;10.06;100.00;100916.41;5040274;28;1982;-76
2023/10/14 06:27:40;;;;;;;;;;;;;;;10.07;100.00;100915.44;5047558;28;1325;-75
2023/10/14 06:30:05;;;;;;;;;;;;;;;10.06;100.00;100913.81;5038012;28;1071;-74
2023/10/14 06:32:41;;;;;;;;;;;;;;;10.08;100.00;100919.69;5058682;28;1363;-76
2023/10/14 06:35:06;;;;;;;;;;;;;;;10.08;100.00;100924.88;5046005;28;1224;-74
2023/10/14 06:37:40;;;;;;;;;;;;;;;10.10;100.00;100932.53;5049401;28;1145;-75
2023/10/14 06:40:11;;;;;;;;;;;;;;;10.11;100.00;100942.78;5062535;28;1349;-78
2023/10/14 06:42:40;;;;;;;;;;;;;;;10.09;100.00;100942.09;5049742;28;1431;-77
2023/10/14 06:45:05;;;;;;;;;;;;;;;10.09;100.00;100957.63;5052742;28;1951;-78
2023/10/14 06:47:30;;;;;;;;;;;;;;;10.07;100.00;100956.91;5054733;28;1235;-77
2023/10/14 06:49:56;;;;;;;;;;;;;;;10.05;100.00;100961.41;5053822;28;1198;-78
2023/10/14 06:52:21;;;;;;;;;;;;;;;10.07;100.00;100964.69;5039014;28;1256;-77
2023/10/14 06:54:47;;;;;;;;;;;;;;;10.04;100.00;100964.94;5055953;28;985;-78
2023/10/14 06:57:14;;;;;;;;;;;;;;;10.02;100.00;100977.16;5068587;28;1479;-78
2023/10/14 06:59:39;;;;;;;;;;;;;;;10.01;100.00;100970.34;5052759;28;1208;-78
2023/10/14 07:02:05;;;;;;;;;;;;;;;10.01;100.00;100980.72;5047393;28;1330;-77
2023/10/14 07:04:37;;;;;;;;;;;;;;;10.01;100.00;100990.25;5052575;28;1219;-78
2023/10/14 07:07:07;;;;;;;;;;;;;;;10.00;100.00;100994.63;5048152;28;1898;-78
2023/10/14 07:09:32;;;;;;;;;;;;;;;10.01;100.00;100996.25;5039043;28;1078;-78
2023/10/14 07:11:57;;;;;;;;;;;;;;;10.05;100.00;100995.09;5040711;28;1237;-78
2023/10/14 07:14:23;;;;;;;;;;;;;;;10.05;100.00;101002.88;5041562;28;976;-77
2023/10/14 07:16:50;;;;;;;;;;;;;;;10.08;100.00;101014.75;5049073;28;1170;-77
2023/10/14 07:19:17;;;;;;;;;;;;;;;10.13;100.00;101014.41;5062779;28;1328;-78
2023/10/14 07:21:43;;;;;;;;;;;;;;;10.19;100.00;101019.13;5045682;28;1220;-78
2023/10/14 07:24:08;;;;;;;;;;;;;;;10.27;100.00;101022.00;5041420;28;1107;-78
2023/10/14 07:26:39;;;;;;;;;;;;;;;10.30;100.00;101026.91;5038524;28;1918;-78
2023/10/14 07:29:05;;;;;;;;;;;;;;;10.35;100.00;101036.00;5036767;28;1119;-78
2023/10/14 07:31:31;;;;;;;;;;;;;;;10.40;100.00;101042.59;5038807;28;1363;-78
2023/10/14 07:34:02;;;;;;;;;;;;;;;10.43;100.00;101037.97;5036978;28;1187;-78
2023/10/14 07:36:27;;;;;;;;;;;;;;;10.46;100.00;101040.34;5038389;28;1199;-78
2023/10/14 07:38:57;;;;;;;;;;;;;;;10.53;100.00;101044.09;5052820;28;1369;-78
2023/10/14 07:41:23;;;;;;;;;;;;;;;10.55;100.00;101047.44;5049448;28;1469;-78
2023/10/14 07:43:48;;;;;;;;;;;;;;;10.59;100.00;101059.19;5043944;28;1246;-78
2023/10/14 07:46:14;;;;;;;;;;;;;;;10.63;100.00;101065.81;5044464;28;1894;-78
2023/10/14 07:48:39;;;;;;;;;;;;;;;10.65;100.00;101068.28;5049175;28;1091;-77
2023/10/14 07:51:06;;;;;;;;;;;;;;;10.70;100.00;101066.16;5047847;28;1167;-77
2023/10/14 07:53:31;;;;;;;;;;;;;;;10.74;100.00;101071.94;5040803;28;1114;-78
2023/10/14 07:55:56;;;;;;;;;;;;;;;10.78;100.00;101062.94;5051397;28;1389;-78
2023/10/14 07:58:26;;;;;;;;;;;;;;;10.85;100.00;101069.31;5046958;28;1344;-78
2023/10/14 08:00:52;;;;;;;;;;;;;;;10.84;100.00;101076.28;5066044;28;1183;-78
2023/10/14 08:03:20;;;;;;;;;;;;;;;10.83;100.00;101086.75;5046326;28;1135;-78
2023/10/14 08:05:48;;;;;;;;;;;;;;;10.85;100.00;101080.53;5044289;28;1953;-78
2023/10/14 08:08:14;;;;;;;;;;;;;;;10.88;100.00;101087.22;5047688;28;1260;-78
2023/10/14 08:10:43;;;;;;;;;;;;;;;10.91;100.00;101087.00;5043314;28;1234;-78
2023/10/14 08:13:08;;;;;;;;;;;;;;;10.98;100.00;101090.75;5054060;28;1240;-78
2023/10/14 08:15:35;;;;;;;;;;;;;;;11.06;100.00;101090.13;5044776;28;1273;-78
2023/10/14 08:18:01;;;;;;;;;;;;;;;11.09;100.00;101098.50;5048109;28;1257;-78
2023/10/14 08:20:31;;;;;;;;;;;;;;;11.14;100.00;101106.75;5048328;28;1372;-77
2023/10/14 08:22:56;;;;;;;;;;;;;;;11.21;100.00;101111.47;5060217;28;1009;-77
2023/10/14 08:25:24;;;;;;;;;;;;;;;11.25;100.00;101102.50;5043466;28;1957;-78
2023/10/14 08:27:50;;;;;;;;;;;;;;;11.27;100.00;101108.38;5045883;28;1184;-78
2023/10/14 08:30:16;;;;;;;;;;;;;;;11.31;100.00;101117.59;5037815;28;1066;-78
2023/10/14 08:32:42;;;;;;;;;;;;;;;11.39;100.00;101116.00;5057611;28;1487;-78
2023/10/14 08:35:17;;;;;;;;;;;;;;;11.43;100.00;101124.38;5062669;28;1365;-78
2023/10/14 08:37:52;;;;;;;;;;;;;;;11.49;100.00;101126.50;5050170;28;1204;-78
2023/10/14 08:40:19;;;;;;;;;;;;;;;11.53;100.00;101127.91;5038965;28;1151;-78
2023/10/14 08:43:05;;;;;;;;;;;;;;;11.60;100.00;101131.66;5045166;28;1126;-78
2023/10/14 08:45:35;;;;;;;;;;;;;;;11.64;99.53;101125.25;5049944;28;1977;-79
2023/10/14 08:48:01;;;;;;;;;;;;;;;11.78;99.32;101141.50;5036744;28;1239;-79
2023/10/14 08:50:29;;;;;;;;;;;;;;;11.87;98.41;101145.94;5042646;28;1079;-79
2023/10/14 08:52:56;;;;;;;;;;;;;;;11.99;97.08;101155.38;5048620;28;1072;-78
2023/10/14 08:55:21;;;;;;;;;;;;;;;11.91;95.52;101152.56;5051684;28;1017;-79
2023/10/14 08:57:48;;;;;;;;;;;;;;;11.88;95.78;101160.63;5050292;28;1326;-78
2023/10/14 09:00:20;;;;;;;;;;;;;;;11.78;93.46;101167.47;5061269;28;1436;-78
2023/10/14 09:02:48;;;;;;;;;;;;;;;11.66;93.74;101164.91;5067482;28;1179;-79
2023/10/14 09:05:16;;;;;;;;;;;;;;;11.75;92.24;101183.31;5048299;28;1895;-79
2023/10/14 09:07:41;;;;;;;;;;;;;;;11.73;93.57;101169.63;5060649;28;1214;-78
2023/10/14 09:10:07;;;;;;;;;;;;;;;11.81;94.28;101172.41;5043675;28;1156;-78
2023/10/14 09:12:32;;;;;;;;;;;;;;;11.87;93.80;101188.38;5055637;28;1271;-79
2023/10/14 09:14:58;;;;;;;;;;;;;;;11.91;93.96;101181.16;5062624;28;1420;-78
2023/10/14 09:17:23;;;;;;;;;;;;;;;11.96;93.08;101186.78;5043701;28;1212;-78
2023/10/14 09:19:48;;;;;;;;;;;;;;;12.05;92.97;101185.22;5049178;28;1061;-78
2023/10/14 09:22:20;;;;;;;;;;;;;;;12.13;92.87;101188.00;5061102;28;1222;-78
2023/10/14 09:24:45;;;;;;;;;;;;;;;12.17;92.16;101185.03;5061322;28;1349;-78
2023/10/14 09:27:11;;;;;;;;;;;;;;;12.22;92.98;101185.50;5068177;28;1898;-80
2023/10/14 09:29:36;;;;;;;;;;;;;;;12.35;91.39;101193.09;5045787;28;1444;-78
2023/10/14 09:32:04;;;;;;;;;;;;;;;12.37;89.71;101185.16;5052397;28;1174;-78
2023/10/14 09:34:30;;;;;;;;;;;;;;;12.44;89.50;101191.50;5050826;28;1383;-78
2023/10/14 09:36:55;;;;;;;;;;;;;;;12.53;88.93;101198.53;5046218;28;1303;-79
2023/10/14 09:39:24;;;;;;;;;;;;;;;12.57;88.25;101202.53;5045791;28;1222;-79
2023/10/14 09:41:51;;;;;;;;;;;;;;;12.68;86.84;101201.63;5052813;28;1159;-78
2023/10/14 09:44:17;;;;;;;;;;;;;;;12.67;86.58;101207.78;5047750;28;1525;-78
2023/10/14 09:46:44;;;;;;;;;;;;;;;12.72;85.35;101206.44;5049673;28;1903;-79
2023/10/14 09:49:11;;;;;;;;;;;;;;;12.76;84.68;101213.03;5041824;28;1131;-78
2023/10/14 09:51:36;;;;;;;;;;;;;;;12.76;84.04;101205.22;5049670;28;1005;-78
2023/10/14 09:54:03;;;;;;;;;;;;;;;12.75;83.92;101216.59;5045082;28;1414;-78
2023/10/14 09:56:30;;;;;;;;;;;;;;;12.79;83.22;101211.13;5046780;28;1182;-78
2023/10/14 09:58:55;;;;;;;;;;;;;;;12.82;83.21;101211.69;5061811;28;1497;-78
2023/10/14 10:01:24;;;;;;;;;;;;;;;12.80;80.15;101216.22;5050691;28;1260;-78
2023/10/14 10:03:55;;;;;;;;;;;;;;;12.72;80.63;101223.81;5057036;28;1203;-78
2023/10/14 10:06:37;;;;;;;;;;;;;;;12.69;80.14;101230.13;5066417;28;1975;-78
2023/10/14 10:09:02;;;;;;;;;;;;;;;12.72;80.81;101227.25;5061549;28;1751;-78
2023/10/14 10:11:27;;;;;;;;;;;;;;;12.98;77.64;101237.25;5048287;28;1513;-78
2023/10/14 10:13:53;;;;;;;;;;;;;;;12.81;80.66;101235.25;5046490;28;1366;-77
2023/10/14 10:16:22;;;;;;;;;;;;;;;12.77;80.23;101240.72;5043994;28;1230;-77
2023/10/14 10:18:51;;;;;;;;;;;;;;;12.71;79.40;101246.44;5040782;28;1188;-77
2023/10/14 10:21:18;;;;;;;;;;;;;;;12.74;80.35;101246.19;5047093;28;1498;-77
2023/10/14 10:23:43;;;;;;;;;;;;;;;12.81;79.82;101245.66;5047108;28;1287;-77
2023/10/14 10:26:08;;;;;;;;;;;;;;;12.88;78.45;101246.78;5049618;28;1898;-78
2023/10/14 10:28:37;;;;;;;;;;;;;;;12.93;77.28;101245.44;5052499;28;1264;-78
2023/10/14 10:31:09;;;;;;;;;;;;;;;13.02;77.89;101246.47;5050823;28;1240;-78
2023/10/14 10:33:51;;;;;;;;;;;;;;;13.12;77.40;101249.91;5049038;28;1204;-78
2023/10/14 10:36:25;;;;;;;;;;;;;;;13.16;76.51;101246.09;5046137;28;1236;-77
2023/10/14 10:38:53;;;;;;;;;;;;;;;13.23;78.05;101255.06;5047143;28;1289;-78
2023/10/14 10:41:19;;;;;;;;;;;;;;;13.42;74.07;101262.13;5045543;28;1052;-78
2023/10/14 10:43:46;;;;;;;;;;;;;;;13.28;74.69;101255.50;5051833;28;1021;-78
2023/10/14 10:46:30;;;;;;;;;;;;;;;13.30;71.35;101257.94;5042394;28;1898;-78
2023/10/14 10:48:55;;;;;;;;;;;;;;;13.31;74.14;101259.63;5049741;28;1161;-78
2023/10/14 10:51:21;;;;;;;;;;;;;;;13.42;75.62;101266.50;5056416;28;1116;-78
2023/10/14 10:53:48;;;;;;;;;;;;;;;13.50;75.79;101269.28;5046918;28;1198;-78
2023/10/14 10:56:14;;;;;;;;;;;;;;;13.60;74.87;101259.69;5050858;28;1428;-78
2023/10/14 10:58:39;;;;;;;;;;;;;;;13.66;73.39;101259.16;5044723;28;1148;-78
2023/10/14 11:01:04;;;;;;;;;;;;;;;13.63;71.58;101267.22;5045242;28;996;-78
2023/10/14 11:03:29;;;;;;;;;;;;;;;13.68;70.53;101272.88;5043733;28;1219;-78
2023/10/14 11:05:56;;;;;;;;;;;;;;;13.69;70.15;101274.50;5052477;28;1902;-77
2023/10/14 11:08:22;;;;;;;;;;;;;;;13.72;72.13;101274.25;5053310;28;1391;-78
2023/10/14 11:10:49;;;;;;;;;;;;;;;13.80;72.15;101282.22;5055484;28;1211;-78
2023/10/14 11:13:16;;;;;;;;;;;;;;;13.86;71.10;101277.44;5045654;28;1711;-77
2023/10/14 11:15:43;;;;;;;;;;;;;;;13.98;71.15;101284.97;5040977;28;1531;-78
2023/10/14 11:18:09;;;;;;;;;;;;;;;14.05;70.39;101267.03;5064240;28;1272;-78
2023/10/14 11:20:39;;;;;;;;;;;;;;;14.15;70.27;101275.66;5060787;28;1295;-79
2023/10/14 11:23:05;;;;;;;;;;;;;;;14.13;70.88;101289.81;5048893;28;1247;-78
2023/10/14 11:25:35;;;;;;;;;;;;;;;14.26;67.53;101278.13;5064438;28;2062;-78
2023/10/14 11:28:00;;;;;;;;;;;;;;;14.09;66.43;101282.25;5047630;28;1335;-78
2023/10/14 11:30:26;;;;;;;;;;;;;;;14.08;66.76;101285.00;5050923;28;1340;-78
2023/10/14 11:32:51;;;;;;;;;;;;;;;14.05;67.02;101277.47;5046991;28;1346;-77
2023/10/14 11:35:18;;;;;;;;;;;;;;;14.09;65.04;101287.47;5054462;28;1274;-77
2023/10/14 11:37:49;;;;;;;;;;;;;;;14.08;66.56;101285.00;5050501;28;1132;-78
2023/10/14 11:40:14;;;;;;;;;;;;;;;14.10;65.51;101272.63;5048522;28;1232;-78
2023/10/14 11:42:39;;;;;;;;;;;;;;;14.13;66.19;101277.59;5050348;28;1255;-78
2023/10/14 11:45:06;;;;;;;;;;;;;;;14.25;64.81;101276.50;5052831;28;1192;-78
2023/10/14 11:47:36;;;;;;;;;;;;;;;14.23;66.17;101286.25;5066515;28;1957;-78
2023/10/14 11:50:02;;;;;;;;;;;;;;;14.32;66.11;101292.41;5052486;28;1217;-78
2023/10/14 11:52:27;;;;;;;;;;;;;;;14.33;66.53;101289.66;5043892;28;1499;-77
2023/10/14 11:54:52;;;;;;;;;;;;;;;14.35;66.20;101297.38;5046395;28;1517;-77
2023/10/14 11:57:19;;;;;;;;;;;;;;;14.34;63.67;101291.34;5044380;28;1376;-78
2023/10/14 11:59:44;;;;;;;;;;;;;;;14.43;60.83;101291.44;5041286;28;1291;-77
2023/10/14 12:02:09;;;;;;;;;;;;;;;14.24;62.86;101290.50;5057429;28;1166;-78
2023/10/14 12:04:34;;;;;;;;;;;;;;;14.21;64.78;101285.53;5040649;28;1127;-78
2023/10/14 12:07:03;;;;;;;;;;;;;;;14.24;63.63;101295.72;5042306;28;1982;-77
2023/10/14 12:09:28;;;;;;;;;;;;;;;14.22;62.36;101297.66;5051589;28;1162;-78
2023/10/14 12:11:53;;;;;;;;;;;;;;;14.29;62.39;101290.91;5049103;28;1208;-78
2023/10/14 12:14:19;;;;;;;;;;;;;;;14.46;59.79;101296.41;5051261;28;1129;-78
2023/10/14 12:16:44;;;;;;;;;;;;;;;14.33;60.54;101300.09;5051301;28;1184;-77
2023/10/14 12:19:14;;;;;;;;;;;;;;;14.31;61.88;101291.59;5056841;28;1080;-78
2023/10/14 12:21:41;;;;;;;;;;;;;;;14.31;61.21;101288.97;5047402;28;1363;-77
2023/10/14 12:24:09;;;;;;;;;;;;;;;14.30;60.52;101297.78;5044473;28;1266;-77
2023/10/14 12:26:36;;;;;;;;;;;;;;;14.23;59.73;101294.09;5048810;28;1906;-78
2023/10/14 12:29:07;;;;;;;;;;;;;;;14.20;59.56;101314.38;5046758;28;1559;-78
2023/10/14 12:31:32;;;;;;;;;;;;;;;14.26;57.71;101309.44;5053577;28;1303;-78
2023/10/14 12:34:01;;;;;;;;;;;;;;;14.18;58.18;101311.94;5042107;28;1215;-78
2023/10/14 12:36:27;;;;;;;;;;;;;;;14.20;60.09;101317.81;5049141;28;1280;-78
2023/10/14 12:38:52;;;;;;;;;;;;;;;14.26;60.98;101319.88;5049025;28;1111;-78
2023/10/14 12:41:21;;;;;;;;;;;;;;;14.28;59.49;101323.19;5053516;28;1228;-78
2023/10/14 12:43:50;;;;;;;;;;;;;;;14.28;59.03;101323.19;5044937;28;1195;-78
2023/10/14 12:48:45;;;;;;;;;;;;;;;14.33;58.24;101336.63;5048539;28;1446;-78
2023/10/14 12:51:12;;;;;;;;;;;;;;;14.18;60.28;101337.19;5046535;28;1266;-78
2023/10/14 12:53:46;;;;;;;;;;;;;;;14.14;59.41;101341.84;5046400;28;1170;-78
2023/10/14 12:56:14;;;;;;;;;;;;;;;14.03;58.95;101339.34;5043501;28;1004;-78
2023/10/14 12:58:42;;;;;;;;;;;;;;;13.81;59.71;101341.22;5046127;28;1302;-78
2023/10/14 13:01:13;;;;;;;;;;;;;;;13.66;60.64;101347.78;5051737;28;1066;-78
2023/10/14 13:03:38;;;;;;;;;;;;;;;13.54;58.87;101344.47;5045634;28;1192;-78
2023/10/14 13:06:06;;;;;;;;;;;;;;;13.33;60.59;101350.66;5039420;28;1954;-78
2023/10/14 13:08:31;;;;;;;;;;;;;;;13.27;62.25;101352.84;5043094;28;988;-78
2023/10/14 13:10:56;;;;;;;;;;;;;;;13.31;63.06;101358.63;5069497;28;1245;-77
2023/10/14 13:13:21;;;;;;;;;;;;;;;13.40;63.96;101357.00;5046008;28;1307;-78